K7POW Weather Reports


Display with metric or nautical units.
time (UTC)temp
F
wind
direction
speed
MPH
gust
MPH
rain 1hr
in
rain 24hr
in
rain mn
in
humidity
%
barometer
mb
20200406021931 39 215 4.0 10.0 0.00 0.01 0.01 76 1000.1
20200406021418 39 229 2.0 8.0 0.00 0.01 0.01 75 1000.2
20200406020927 39 217 3.0 9.0 0.00 0.01 0.01 75 1000.1
20200406020420 40 241 4.0 10.0 0.00 0.01 0.01 74 999.9
20200406015927 40 231 4.0 12.0 0.00 0.01 0.01 74 999.9
20200406015435 40 218 4.0 12.0 0.00 0.01 0.01 74 999.8
20200406014924 40 238 4.0 12.0 0.00 0.01 0.01 73 999.8
20200406014432 40 232 3.0 12.0 0.00 0.01 0.01 73 999.8
20200406013921 40 216 2.0 11.0 0.00 0.02 0.01 73 999.7
20200406013431 41 214 4.0 11.0 0.00 0.02 0.01 72 999.7
20200406012922 41 212 3.0 10.0 0.00 0.02 0.01 73 999.7
20200406012430 41 226 2.0 9.0 0.00 0.02 0.01 72 999.7
20200406011923 41 223 3.0 10.0 0.00 0.02 0.01 73 999.6
20200406011432 41 236 2.0 11.0 0.00 0.02 0.01 72 999.6
20200406010923 41 223 4.0 11.0 0.00 0.02 0.01 73 999.7
20200406010432 41 240 3.0 16.0 0.00 0.02 0.01 75 999.7
20200406005921 41 225 5.0 16.0 0.00 0.02 0.01 75 999.6
20200406005433 41 233 4.0 13.0 0.00 0.02 0.01 75 999.6
20200406004921 41 228 5.0 13.0 0.00 0.02 0.01 75 999.4
20200406004433 41 227 5.0 13.0 0.00 0.02 0.01 73 999.3
20200406003922 41 246 4.0 14.0 0.00 0.04 0.01 71 999.4
20200406003417 42 244 5.0 14.0 0.00 0.04 0.01 71 999.2
20200406002926 42 238 7.0 17.0 0.00 0.04 0.01 71 999.4
20200406002435 42 216 8.0 17.0 0.00 0.04 0.01 72 999.5
20200406001925 42 246 6.0 17.0 0.00 0.04 0.01 74 999.5
20200406001433 42 275 8.0 18.0 0.00 0.04 0.01 71 999.6
20200406000922 42 225 8.0 18.0 0.00 0.04 0.01 73 999.5
20200406000433 42 246 4.0 14.0 0.00 0.04 0.01 73 999.5
20200405235919 42 223 5.0 14.0 0.00 0.04 0.01 73 999.0
20200405235428 42 273 5.0 13.0 0.00 0.04 0.01 72 998.8
20200405234921 43 256 3.0 13.0 0.00 0.04 0.01 72 999.1
20200405234434 43 252 7.0 13.0 0.00 0.04 0.01 73 999.3
20200405233921 43 277 5.0 11.0 0.00 0.06 0.01 76 999.3
20200405233429 43 271 2.0 9.0 0.00 0.06 0.01 79 999.2
20200405232917 43 227 3.0 10.0 0.00 0.06 0.01 80 998.8
20200405232426 43 229 3.0 10.0 0.00 0.06 0.01 80 998.7
20200405231915 43 236 3.0 13.0 0.00 0.06 0.01 81 998.4
20200405231427 43 227 3.0 13.0 0.00 0.06 0.01 81 998.4
20200405230920 43 235 2.0 13.0 0.00 0.06 0.01 81 998.6
20200405230428 43 236 3.0 16.0 0.00 0.06 0.01 82 999.0
20200405225914 43 242 6.0 16.0 0.00 0.06 0.01 81 999.1
20200405225426 43 261 5.0 14.0 0.00 0.06 0.01 83 999.0
20200405224934 43 227 4.0 11.0 0.00 0.06 0.01 84 998.9
20200405224423 42 234 2.0 10.0 0.00 0.06 0.01 84 998.9
20200405223932 42 271 5.0 10.0 0.00 0.08 0.01 83 999.0
20200405223420 43 227 3.0 11.0 0.00 0.08 0.01 83 998.9
20200405222929 43 238 4.0 11.0 0.00 0.08 0.01 84 998.8
20200405222422 42 232 4.0 10.0 0.00 0.08 0.01 85 998.7
20200405221930 42 263 4.0 10.0 0.00 0.08 0.01 84 998.8
20200405063434 36 239 1.0 7.0 0.00 0.14 0.14 93 1000.7
20200405062942 35 220 2.0 7.0 0.00 0.14 0.14 93 1000.8
20200405062431 35 246 2.0 5.0 0.00 0.14 0.14 92 1000.7
20200405061940 35 237 1.0 4.0 0.00 0.14 0.14 92 1000.8
20200405061433 35 237 2.0 4.0 0.00 0.14 0.14 92 1000.8
20200405060921 35 236 2.0 4.0 0.00 0.14 0.14 93 1000.8
20200405060433 35 232 0.0 6.0 0.00 0.14 0.14 93 1000.8
20200405055945 35 232 2.0 6.0 0.00 0.14 0.14 93 1000.7
20200405055428 35 234 0.0 5.0 0.00 0.14 0.14 93 1000.8
20200405054940 35 234 1.0 5.0 0.00 0.14 0.14 92 1000.7
20200405054429 35 234 0.0 5.0 0.00 0.14 0.14 92 1000.7
20200405053938 35 233 1.0 3.0 0.00 0.14 0.14 92 1000.8
20200405053427 35 233 0.0 3.0 0.00 0.14 0.14 92 1000.8
20200405052922 35 233 0.0 4.0 0.00 0.14 0.14 92 1000.9
20200405052434 35 233 1.0 5.0 0.00 0.14 0.14 92 1000.9
20200405051922 35 233 2.0 5.0 0.00 0.14 0.14 92 1001.0
20200405051434 35 232 3.0 5.0 0.00 0.14 0.14 92 1001.0
20200405050943 35 233 1.0 5.0 0.00 0.14 0.14 92 1000.9
20200405050432 35 232 1.0 5.0 0.00 0.14 0.14 92 1001.0
20200405045939 34 236 0.0 3.0 0.00 0.14 0.14 92 1001.1
20200405045428 34 236 0.0 3.0 0.00 0.14 0.14 92 1001.1
20200405044936 34 236 0.0 3.0 0.00 0.14 0.14 92 1001.1
20200405044431 34 236 0.0 5.0 0.00 0.14 0.14 92 1001.2
20200405043940 34 236 1.0 5.0 0.00 0.14 0.14 92 1001.2
20200405043429 34 236 1.0 3.0 0.00 0.14 0.14 92 1001.2
20200405042937 34 236 1.0 3.0 0.00 0.14 0.14 92 1001.3
20200405042426 34 236 0.0 2.0 0.00 0.14 0.14 92 1001.3
20200405041935 34 236 0.0 3.0 0.00 0.14 0.14 91 1001.3
20200405041423 34 236 0.0 3.0 0.00 0.14 0.14 91 1001.4
20200405040932 34 236 0.0 3.0 0.00 0.14 0.14 91 1001.3
20200405040426 34 236 0.0 3.0 0.00 0.14 0.14 91 1001.3
20200405035933 34 236 0.0 2.0 0.00 0.14 0.14 91 1001.3
20200405035442 34 236 1.0 4.0 0.00 0.14 0.14 91 1001.2
20200405034931 33 236 1.0 4.0 0.00 0.14 0.14 91 1001.3
20200405034439 33 234 0.0 3.0 0.00 0.14 0.14 90 1001.2
20200405033928 33 234 1.0 5.0 0.00 0.14 0.14 89 1001.3
20200405033437 34 234 2.0 5.0 0.00 0.14 0.14 88 1001.3
20200405032928 34 234 0.0 5.0 0.00 0.14 0.14 88 1001.1
20200405032437 34 234 2.0 5.0 0.00 0.14 0.14 88 1001.3
20200405031932 35 234 1.0 4.0 0.00 0.14 0.14 88 1001.3
20200405031442 35 234 0.0 1.0 0.00 0.14 0.14 87 1001.2
20200405030930 36 234 0.0 5.0 0.00 0.14 0.14 87 1001.2
20200405030439 36 236 1.0 5.0 0.00 0.14 0.14 87 1001.3
20200405025929 36 229 1.0 4.0 0.00 0.14 0.14 87 1001.1
20200405025438 36 236 0.0 2.0 0.00 0.14 0.14 87 1001.0
20200405024927 37 236 1.0 2.0 0.00 0.14 0.14 86 1001.0
20200405024436 37 236 1.0 3.0 0.00 0.14 0.14 86 1001.0
20200405023927 37 236 1.0 6.0 0.00 0.14 0.14 86 1001.0
20200405023441 37 236 2.0 6.0 0.00 0.14 0.14 86 1000.9
20200405022928 38 227 0.0 4.0 0.00 0.14 0.14 86 1001.1
20200405022437 38 226 1.0 6.0 0.01 0.14 0.14 86 1000.9